createdAt,value
2019-03-06T00:01:10.643Z,99.90
2019-03-06T00:03:40.050Z,99.90
2019-03-06T00:06:16.761Z,99.90
2019-03-06T00:08:42.960Z,99.90
2019-03-06T00:11:13.637Z,99.90
2019-03-06T00:13:43.020Z,99.90
2019-03-06T00:16:12.556Z,99.90
2019-03-06T00:18:43.082Z,99.90
2019-03-06T00:21:12.316Z,99.90
2019-03-06T00:23:41.890Z,99.90
2019-03-06T00:26:12.440Z,99.90
2019-03-06T00:28:43.238Z,99.90
2019-03-06T00:31:12.685Z,99.90
2019-03-06T00:33:42.268Z,99.90
2019-03-06T00:36:19.569Z,99.90
2019-03-06T00:38:49.358Z,99.90
2019-03-06T00:41:24.243Z,99.90
2019-03-06T00:43:54.549Z,99.90
2019-03-06T00:46:25.125Z,99.90
2019-03-06T00:48:55.668Z,99.90
2019-03-06T00:51:25.260Z,99.90
2019-03-06T00:53:54.669Z,99.90
2019-03-06T00:56:24.445Z,99.90
2019-03-06T00:58:53.909Z,99.90
2019-03-06T01:01:25.685Z,99.90
2019-03-06T01:03:54.947Z,99.90
2019-03-06T01:06:24.356Z,99.90
2019-03-06T01:08:55.117Z,99.90
2019-03-06T01:11:24.421Z,99.90
2019-03-06T01:13:55.089Z,99.90
2019-03-06T01:16:25.641Z,99.90
2019-03-06T01:18:55.946Z,99.90
2019-03-06T01:21:25.372Z,99.90
2019-03-06T01:23:55.742Z,99.90
2019-03-06T01:26:25.061Z,99.90
2019-03-06T01:28:54.468Z,99.90
2019-03-06T01:31:27.352Z,99.90
2019-03-06T01:34:15.098Z,99.90
2019-03-06T01:37:04.586Z,99.90
2019-03-06T01:40:03.061Z,99.90
2019-03-06T01:42:46.206Z,99.90
2019-03-06T01:45:15.707Z,99.90
2019-03-06T01:47:45.113Z,99.90
2019-03-06T01:50:15.395Z,99.90
2019-03-06T01:52:46.329Z,99.90
2019-03-06T01:55:18.719Z,99.90
2019-03-06T01:57:48.291Z,99.90
2019-03-06T02:00:19.002Z,99.90
2019-03-06T02:02:49.851Z,99.90
2019-03-06T02:05:19.497Z,99.90
2019-03-06T02:07:48.745Z,99.90
2019-03-06T02:10:19.083Z,99.90
2019-03-06T02:12:48.508Z,99.90
2019-03-06T02:15:18.562Z,99.90
2019-03-06T02:17:48.041Z,99.90
2019-03-06T02:20:17.697Z,99.90
2019-03-06T02:22:47.147Z,99.90
2019-03-06T02:25:16.583Z,99.90
2019-03-06T02:27:46.273Z,99.90
2019-03-06T02:30:18.914Z,99.90
2019-03-06T02:32:48.206Z,99.90
2019-03-06T02:35:17.543Z,99.90
2019-03-06T02:37:46.808Z,99.90
2019-03-06T02:40:16.336Z,99.90
2019-03-06T02:42:45.721Z,99.90
2019-03-06T02:45:17.479Z,99.90
2019-03-06T02:47:46.888Z,99.90
2019-03-06T02:50:16.372Z,99.90
2019-03-06T02:52:47.094Z,99.90
2019-03-06T02:55:17.044Z,99.90
2019-03-06T02:57:57.895Z,99.90
2019-03-06T03:00:55.516Z,99.90
2019-03-06T03:03:55.999Z,99.90
2019-03-06T03:06:31.243Z,99.90
2019-03-06T03:09:00.641Z,99.90
2019-03-06T03:11:30.731Z,99.90
2019-03-06T03:14:01.156Z,99.90
2019-03-06T03:16:30.899Z,99.90
2019-03-06T03:19:01.379Z,99.90
2019-03-06T03:21:32.588Z,99.90
2019-03-06T03:24:04.869Z,99.90
2019-03-06T03:26:34.429Z,99.90
2019-03-06T03:29:05.746Z,99.90
2019-03-06T03:31:36.298Z,99.90
2019-03-06T03:34:06.758Z,99.90
2019-03-06T03:36:36.197Z,99.90
2019-03-06T03:39:08.146Z,99.90
2019-03-06T03:41:37.610Z,99.90
2019-03-06T03:44:06.934Z,99.90
2019-03-06T03:46:36.230Z,99.90
2019-03-06T03:49:06.620Z,99.90
2019-03-06T03:51:38.967Z,99.90
2019-03-06T03:54:11.100Z,99.90
2019-03-06T03:56:40.846Z,99.90
2019-03-06T03:59:10.324Z,99.90
2019-03-06T04:01:40.826Z,99.90
2019-03-06T04:04:11.496Z,99.90
2019-03-06T04:06:42.023Z,99.90
2019-03-06T04:09:13.265Z,99.90
2019-03-06T04:11:42.656Z,99.90
2019-03-06T04:14:12.385Z,99.90
2019-03-06T04:16:41.789Z,99.90
2019-03-06T04:19:14.438Z,99.90
2019-03-06T04:21:43.728Z,99.90
2019-03-06T04:24:14.314Z,99.90
2019-03-06T04:26:44.006Z,99.90
2019-03-06T04:29:13.397Z,99.90
2019-03-06T04:31:44.427Z,99.90
2019-03-06T04:34:14.863Z,99.90
2019-03-06T04:36:44.217Z,99.90
2019-03-06T04:39:13.581Z,99.90
2019-03-06T04:41:42.848Z,99.90
2019-03-06T04:44:12.142Z,99.90
2019-03-06T04:46:42.359Z,99.90
2019-03-06T04:49:11.631Z,99.90
2019-03-06T04:51:41.038Z,99.90
2019-03-06T04:54:10.330Z,99.90
2019-03-06T04:56:39.832Z,99.90
2019-03-06T04:59:10.307Z,99.90
2019-03-06T05:01:39.558Z,99.90
2019-03-06T05:04:09.848Z,99.90
2019-03-06T05:06:40.510Z,99.90
2019-03-06T05:09:09.728Z,99.90
2019-03-06T05:11:40.918Z,99.90
2019-03-06T05:14:10.484Z,99.90
2019-03-06T05:16:55.926Z,99.90
2019-03-06T05:19:25.166Z,99.90
2019-03-06T05:21:54.462Z,99.90
2019-03-06T05:24:26.631Z,99.90
2019-03-06T05:26:55.771Z,99.90
2019-03-06T05:29:25.156Z,99.90
2019-03-06T05:32:31.945Z,99.90
2019-03-06T05:35:04.033Z,99.90
2019-03-06T05:37:59.346Z,99.90
2019-03-06T05:40:30.457Z,99.90
2019-03-06T05:43:01.629Z,99.90
2019-03-06T05:45:32.196Z,99.90
2019-03-06T05:48:04.137Z,99.90
2019-03-06T05:50:33.787Z,99.90
2019-03-06T05:53:04.276Z,99.90
2019-03-06T05:55:33.597Z,99.90
2019-03-06T05:58:02.909Z,99.90
2019-03-06T06:00:37.330Z,99.90
2019-03-06T06:03:06.834Z,99.90
2019-03-06T06:05:37.857Z,99.90
2019-03-06T06:08:07.347Z,99.90
2019-03-06T06:10:37.071Z,99.90
2019-03-06T06:13:06.339Z,99.90
2019-03-06T06:15:36.000Z,99.90
2019-03-06T06:18:05.300Z,99.90
2019-03-06T06:20:34.680Z,99.90
2019-03-06T06:23:12.036Z,99.90
2019-03-06T06:25:41.337Z,99.90
2019-03-06T06:28:10.873Z,99.90
2019-03-06T06:30:40.128Z,99.90
2019-03-06T06:33:11.448Z,99.90
2019-03-06T06:35:40.792Z,99.90
2019-03-06T06:38:12.011Z,99.90
2019-03-06T06:40:41.748Z,99.90
2019-03-06T06:43:11.383Z,99.90
2019-03-06T06:45:41.800Z,99.90
2019-03-06T06:48:21.910Z,99.90
2019-03-06T06:51:28.624Z,99.90
2019-03-06T06:54:12.860Z,99.90
2019-03-06T06:57:15.725Z,99.90
2019-03-06T07:00:12.423Z,99.90
2019-03-06T07:03:31.161Z,99.90
2019-03-06T07:06:24.335Z,99.90
2019-03-06T07:09:11.818Z,99.90
2019-03-06T07:12:18.636Z,99.90
2019-03-06T07:15:25.366Z,99.90
2019-03-06T07:18:19.810Z,99.90
2019-03-06T07:20:57.662Z,99.90
2019-03-06T07:23:48.915Z,99.90
2019-03-06T07:26:35.802Z,99.90
2019-03-06T07:29:23.913Z,99.90
2019-03-06T07:32:24.324Z,99.90
2019-03-06T07:35:48.507Z,99.90
2019-03-06T07:38:18.313Z,99.90
2019-03-06T07:41:14.376Z,99.90
2019-03-06T07:43:55.544Z,99.90
2019-03-06T07:46:34.672Z,99.90
2019-03-06T07:49:22.417Z,99.90
2019-03-06T07:52:14.084Z,99.90
2019-03-06T07:55:20.822Z,99.90
2019-03-06T07:58:26.510Z,99.90
2019-03-06T08:00:56.114Z,99.90
2019-03-06T08:03:36.055Z,99.90
2019-03-06T08:06:05.611Z,99.90
2019-03-06T08:08:36.007Z,99.90
2019-03-06T08:11:08.129Z,99.90
2019-03-06T08:13:48.515Z,99.90
2019-03-06T08:16:23.912Z,99.90
2019-03-06T08:19:00.245Z,99.90
2019-03-06T08:21:42.075Z,99.90
2019-03-06T08:24:33.462Z,99.90
2019-03-06T08:27:03.065Z,99.90
2019-03-06T08:29:35.467Z,99.90
2019-03-06T08:32:26.736Z,99.90
2019-03-06T08:34:57.832Z,99.90
2019-03-06T08:37:27.500Z,99.90
2019-03-06T08:40:02.241Z,99.90
2019-03-06T08:42:33.071Z,99.90
2019-03-06T08:45:03.095Z,99.90
2019-03-06T08:47:56.323Z,99.90
2019-03-06T08:50:43.869Z,99.90
2019-03-06T08:53:27.532Z,99.90
2019-03-06T08:56:23.512Z,99.90
2019-03-06T08:59:06.581Z,99.90
2019-03-06T09:02:15.310Z,99.90
2019-03-06T09:04:57.415Z,99.90
2019-03-06T09:07:47.110Z,99.90
2019-03-06T09:10:42.990Z,99.90
2019-03-06T09:13:31.257Z,99.90
2019-03-06T09:16:33.074Z,99.90
2019-03-06T09:19:31.740Z,99.90
2019-03-06T09:22:23.184Z,99.90
2019-03-06T09:25:12.481Z,99.90
2019-03-06T09:28:10.873Z,99.90
2019-03-06T09:31:16.417Z,99.90
2019-03-06T09:34:10.313Z,99.90
2019-03-06T09:37:10.406Z,99.90
2019-03-06T09:39:58.794Z,99.90
2019-03-06T09:42:37.899Z,99.90
2019-03-06T09:45:28.713Z,99.90
2019-03-06T09:48:22.807Z,99.90
2019-03-06T09:51:09.377Z,99.90
2019-03-06T09:54:12.969Z,99.90
2019-03-06T09:57:11.610Z,99.90
2019-03-06T09:59:57.609Z,99.90
2019-03-06T10:02:37.782Z,99.90
2019-03-06T10:05:17.793Z,99.90
2019-03-06T10:08:05.810Z,99.90
2019-03-06T10:10:54.452Z,99.90
2019-03-06T10:13:22.093Z,99.90
2019-03-06T10:16:08.312Z,99.90
2019-03-06T10:18:42.159Z,99.90
2019-03-06T10:21:12.854Z,99.90
2019-03-06T10:23:43.805Z,99.90
2019-03-06T10:26:13.409Z,99.90
2019-03-06T10:28:44.224Z,99.90
2019-03-06T10:31:15.737Z,99.90
2019-03-06T10:33:49.352Z,99.90
2019-03-06T10:36:19.643Z,99.90
2019-03-06T10:38:50.590Z,99.90
2019-03-06T10:41:20.248Z,99.90
2019-03-06T10:43:49.929Z,99.90
2019-03-06T10:46:21.077Z,99.90
2019-03-06T10:48:50.661Z,99.90
2019-03-06T10:51:20.500Z,99.90
2019-03-06T10:53:51.262Z,99.90
2019-03-06T10:56:21.025Z,99.90
2019-03-06T10:58:50.819Z,99.90
2019-03-06T11:01:20.540Z,99.90
2019-03-06T11:04:27.313Z,99.90
2019-03-06T11:06:57.233Z,99.90
2019-03-06T11:09:27.354Z,99.90
2019-03-06T11:11:56.901Z,99.90
2019-03-06T11:14:26.624Z,99.90
2019-03-06T11:16:58.856Z,99.90
2019-03-06T11:19:28.669Z,99.90
2019-03-06T11:21:58.247Z,99.90
2019-03-06T11:24:31.139Z,99.90
2019-03-06T11:27:01.150Z,99.90
2019-03-06T11:29:31.570Z,99.90
2019-03-06T11:32:01.137Z,99.90
2019-03-06T11:34:30.416Z,99.90
2019-03-06T11:37:00.259Z,99.90
2019-03-06T11:39:31.511Z,99.90
2019-03-06T11:42:01.963Z,99.90
2019-03-06T11:44:31.364Z,99.50
2019-03-06T11:47:01.367Z,99.80
2019-03-06T11:49:34.060Z,99.50
2019-03-06T11:52:03.550Z,99.70
2019-03-06T11:54:32.941Z,98.40
2019-03-06T11:57:02.434Z,99.20
2019-03-06T11:59:31.872Z,97.10
2019-03-06T12:02:01.860Z,96.60
2019-03-06T12:04:33.425Z,95.40
2019-03-06T12:07:02.829Z,93.40
2019-03-06T12:09:33.577Z,92.30
2019-03-06T12:12:04.744Z,92.40
2019-03-06T12:14:34.506Z,92.40
2019-03-06T12:17:04.118Z,91.10
2019-03-06T12:19:35.652Z,92.60
2019-03-06T12:22:07.590Z,91.70
2019-03-06T12:24:38.542Z,92.30
2019-03-06T12:27:08.411Z,91.70
2019-03-06T12:29:41.157Z,92.30
2019-03-06T12:32:12.527Z,91.30
2019-03-06T12:34:43.298Z,91.30
2019-03-06T12:37:12.775Z,90.90
2019-03-06T12:39:42.358Z,91.60
2019-03-06T12:42:14.508Z,91.50
2019-03-06T12:44:42.981Z,92.30
2019-03-06T12:47:14.587Z,91.80
2019-03-06T12:49:44.189Z,90.90
2019-03-06T12:52:13.762Z,90.10
2019-03-06T12:54:44.894Z,88.80
2019-03-06T12:57:37.740Z,89.40
2019-03-06T13:00:16.193Z,88.70
2019-03-06T13:02:46.293Z,89.30
2019-03-06T13:05:23.585Z,88.70
2019-03-06T13:07:54.524Z,85.20
2019-03-06T13:10:28.255Z,85.80
2019-03-06T13:13:01.231Z,88.00
2019-03-06T13:15:30.929Z,86.10
2019-03-06T13:18:02.559Z,85.40
2019-03-06T13:20:33.415Z,84.20
2019-03-06T13:23:04.878Z,81.70
2019-03-06T13:25:34.092Z,76.20
2019-03-06T13:28:03.594Z,73.50
2019-03-06T13:30:34.355Z,70.40
2019-03-06T13:33:17.765Z,69.90
2019-03-06T13:35:47.239Z,63.10
2019-03-06T13:38:16.653Z,57.60
2019-03-06T13:40:45.978Z,55.00
2019-03-06T13:43:15.837Z,51.50
2019-03-06T13:45:45.118Z,49.50
2019-03-06T13:48:14.517Z,49.10
2019-03-06T13:50:44.202Z,47.70
2019-03-06T13:53:20.274Z,48.20
2019-03-06T18:28:05.707Z,49.70
2019-03-06T18:30:35.555Z,99.90
2019-03-06T18:33:04.826Z,99.90
2019-03-06T18:35:34.411Z,99.90
2019-03-06T18:38:05.793Z,99.90
2019-03-06T18:40:37.931Z,99.90
2019-03-06T18:43:07.576Z,99.90
2019-03-06T18:45:37.334Z,99.90
2019-03-06T18:48:12.300Z,99.90
2019-03-06T18:50:43.320Z,99.90
2019-03-06T18:53:12.832Z,99.90
2019-03-06T18:55:43.760Z,99.90
2019-03-06T18:58:13.376Z,99.90
2019-03-06T19:00:42.889Z,99.90
2019-03-06T19:03:12.511Z,99.90
2019-03-06T19:05:42.876Z,99.90
2019-03-06T19:08:12.439Z,99.90
2019-03-06T19:10:42.829Z,99.90
2019-03-06T19:13:12.583Z,99.90
2019-03-06T19:15:44.343Z,99.90
2019-03-06T19:18:14.024Z,99.90
2019-03-06T19:20:43.752Z,99.90
2019-03-06T19:23:13.450Z,99.90
2019-03-06T19:25:42.851Z,99.90
2019-03-06T19:28:12.239Z,99.90
2019-03-06T19:30:43.819Z,99.90
2019-03-06T19:33:13.403Z,99.90
2019-03-06T19:35:42.876Z,99.90
2019-03-06T19:38:15.144Z,99.90
2019-03-06T19:40:44.732Z,99.90
2019-03-06T19:43:14.680Z,99.90
2019-03-06T19:45:44.408Z,99.90
2019-03-06T19:48:18.402Z,99.90
2019-03-06T19:50:49.161Z,99.90
2019-03-06T19:53:21.210Z,99.90
2019-03-06T19:55:53.796Z,99.90
2019-03-06T19:58:23.259Z,99.90
2019-03-06T20:00:55.670Z,99.90
2019-03-06T20:03:25.476Z,99.90
2019-03-06T20:05:56.943Z,99.90
2019-03-06T20:08:26.523Z,99.90
2019-03-06T20:10:57.027Z,99.90
2019-03-06T20:13:29.319Z,99.90
2019-03-06T20:15:59.802Z,99.90
2019-03-06T20:18:30.363Z,99.90
2019-03-06T20:20:59.675Z,99.90
2019-03-06T20:23:29.237Z,99.90
2019-03-06T20:25:58.673Z,99.90
2019-03-06T20:28:28.222Z,99.90
2019-03-06T20:30:57.871Z,99.90
2019-03-06T20:33:28.997Z,99.90
2019-03-06T20:35:58.620Z,99.90
2019-03-06T20:38:28.002Z,99.90
2019-03-06T20:40:57.548Z,99.90
2019-03-06T20:43:27.014Z,99.90
2019-03-06T20:45:56.451Z,99.90
2019-03-06T20:48:25.845Z,99.90
2019-03-06T20:50:55.409Z,99.90
2019-03-06T20:53:25.015Z,99.90
2019-03-06T20:55:54.493Z,99.90
2019-03-06T20:58:25.227Z,99.90
2019-03-06T21:00:56.342Z,99.90
2019-03-06T21:03:26.346Z,99.90
2019-03-06T21:05:55.854Z,99.90
2019-03-06T21:08:25.354Z,99.90
2019-03-06T21:10:54.910Z,99.90
2019-03-06T21:13:26.244Z,99.90
2019-03-06T21:15:55.729Z,99.90
2019-03-06T21:18:27.245Z,99.90
2019-03-06T21:20:59.139Z,99.90
2019-03-06T21:23:28.543Z,99.90
2019-03-06T21:25:57.918Z,99.90
2019-03-06T21:28:27.428Z,99.90
2019-03-06T21:30:56.819Z,99.90
2019-03-06T21:33:26.247Z,99.90
2019-03-06T21:35:56.957Z,99.90
2019-03-06T21:38:27.999Z,99.90
2019-03-06T21:40:59.661Z,99.90
2019-03-06T21:43:30.564Z,99.90
2019-03-06T21:46:01.384Z,99.90
2019-03-06T21:48:31.884Z,99.90
2019-03-06T21:51:02.108Z,99.90
2019-03-06T21:53:32.090Z,99.90
2019-03-06T21:56:01.499Z,99.90
2019-03-06T21:58:30.975Z,99.90
2019-03-06T22:01:00.581Z,99.90
2019-03-06T22:03:30.971Z,99.90
2019-03-06T22:06:01.902Z,99.90
2019-03-06T22:08:31.451Z,99.90
2019-03-06T22:11:01.019Z,99.90
2019-03-06T22:13:30.554Z,99.90
2019-03-06T22:15:59.942Z,99.90
2019-03-06T22:18:29.421Z,99.90
2019-03-06T22:21:00.625Z,99.90
2019-03-06T22:23:30.001Z,99.90
2019-03-06T22:26:00.659Z,99.90
2019-03-06T22:28:30.600Z,99.90
2019-03-06T22:31:00.307Z,99.90
2019-03-06T22:33:29.614Z,99.90
2019-03-06T22:35:59.244Z,99.90
2019-03-06T22:38:29.721Z,99.90
2019-03-06T22:40:59.142Z,99.90
2019-03-06T22:43:28.649Z,99.90
2019-03-06T22:45:58.393Z,99.90
2019-03-06T22:48:28.863Z,99.90
2019-03-06T22:50:58.267Z,99.90
2019-03-06T22:53:27.828Z,99.90
2019-03-06T22:55:58.976Z,99.90
2019-03-06T22:58:28.250Z,99.90
2019-03-06T23:01:01.171Z,99.90
2019-03-06T23:03:31.734Z,99.90
2019-03-06T23:06:01.064Z,99.90
2019-03-06T23:08:30.450Z,99.90
2019-03-06T23:10:59.763Z,99.90
2019-03-06T23:13:30.973Z,99.90
2019-03-06T23:16:00.341Z,99.90
2019-03-06T23:18:30.899Z,99.90
2019-03-06T23:21:01.578Z,99.90
2019-03-06T23:23:30.994Z,99.90
2019-03-06T23:26:01.724Z,99.90
2019-03-06T23:28:32.125Z,99.90
2019-03-06T23:31:01.386Z,99.90
2019-03-06T23:33:35.424Z,99.90
2019-03-06T23:36:04.839Z,99.90
2019-03-06T23:38:34.573Z,99.90
2019-03-06T23:41:03.825Z,99.90
2019-03-06T23:43:37.082Z,99.90
2019-03-06T23:46:07.459Z,99.90
2019-03-06T23:48:36.780Z,99.90
2019-03-06T23:51:35.522Z,99.90
2019-03-06T23:54:04.850Z,99.90
2019-03-06T23:56:35.388Z,99.90
2019-03-06T23:59:06.220Z,99.90
